createdAt,value
2019-03-06T00:02:13.828Z,6.20
2019-03-06T00:04:43.531Z,5.97
2019-03-06T00:07:13.131Z,6.43
2019-03-06T00:09:42.888Z,7.20
2019-03-06T00:12:15.454Z,6.40
2019-03-06T00:14:45.167Z,6.10
2019-03-06T00:17:14.931Z,6.47
2019-03-06T00:19:44.615Z,6.13
2019-03-06T00:22:14.431Z,6.77
2019-03-06T00:24:44.177Z,7.40
2019-03-06T00:27:13.784Z,6.50
2019-03-06T00:29:43.567Z,7.10
2019-03-06T00:32:13.141Z,6.40
2019-03-06T00:34:42.924Z,7.03
2019-03-06T00:37:13.691Z,6.73
2019-03-06T00:39:54.310Z,7.13
2019-03-06T00:42:23.977Z,6.73
2019-03-06T00:44:53.509Z,6.70
2019-03-06T00:47:23.282Z,7.20
2019-03-06T00:49:53.009Z,7.97
2019-03-06T00:52:22.716Z,8.20
2019-03-06T00:54:52.386Z,8.53
2019-03-06T00:57:21.924Z,8.03
2019-03-06T00:59:51.764Z,7.23
2019-03-06T01:02:22.745Z,6.70
2019-03-06T01:04:54.811Z,7.07
2019-03-06T01:07:24.420Z,8.17
2019-03-06T01:09:54.306Z,7.37
2019-03-06T01:12:23.863Z,7.63
2019-03-06T01:14:53.599Z,7.57
2019-03-06T01:17:23.180Z,7.23
2019-03-06T01:19:52.843Z,6.20
2019-03-06T01:22:22.758Z,6.73
2019-03-06T01:24:52.404Z,7.30
2019-03-06T01:27:22.086Z,6.77
2019-03-06T01:29:51.752Z,6.07
2019-03-06T01:32:21.440Z,6.47
2019-03-06T01:35:08.537Z,6.97
2019-03-06T01:37:56.066Z,7.23
2019-03-06T01:40:36.514Z,7.83
2019-03-06T01:43:14.017Z,7.70
2019-03-06T01:45:43.540Z,8.10
2019-03-06T01:48:13.412Z,8.13
2019-03-06T01:50:45.511Z,8.13
2019-03-06T01:53:15.268Z,7.10
2019-03-06T01:55:44.704Z,7.20
2019-03-06T01:58:14.344Z,7.03
2019-03-06T02:00:44.390Z,7.37
2019-03-06T02:03:14.245Z,7.20
2019-03-06T02:05:43.906Z,7.80
2019-03-06T02:08:14.003Z,7.47
2019-03-06T02:10:43.576Z,6.47
2019-03-06T02:13:13.553Z,7.63
2019-03-06T02:15:43.376Z,8.00
2019-03-06T02:18:13.064Z,6.90
2019-03-06T02:20:42.591Z,7.93
2019-03-06T02:23:12.473Z,7.10
2019-03-06T02:25:42.194Z,6.67
2019-03-06T02:28:11.972Z,9.07
2019-03-06T02:30:41.633Z,9.40
2019-03-06T02:33:11.517Z,9.10
2019-03-06T02:35:41.482Z,7.53
2019-03-06T02:38:11.068Z,8.10
2019-03-06T02:40:40.762Z,8.33
2019-03-06T02:43:10.537Z,6.70
2019-03-06T02:45:42.214Z,7.37
2019-03-06T02:48:11.632Z,7.40
2019-03-06T02:50:41.342Z,6.87
2019-03-06T02:53:10.958Z,6.93
2019-03-06T02:55:40.680Z,5.57
2019-03-06T02:58:19.302Z,6.87
2019-03-06T03:01:11.121Z,6.63
2019-03-06T03:04:08.768Z,7.07
2019-03-06T03:06:45.039Z,6.93
2019-03-06T03:09:20.826Z,7.43
2019-03-06T03:11:50.441Z,6.87
2019-03-06T03:14:20.190Z,8.37
2019-03-06T03:16:49.849Z,8.93
2019-03-06T03:19:19.538Z,9.17
2019-03-06T03:21:49.326Z,8.47
2019-03-06T03:24:19.196Z,8.93
2019-03-06T03:26:48.664Z,9.57
2019-03-06T03:29:18.393Z,10.10
2019-03-06T03:31:47.998Z,9.60
2019-03-06T03:34:20.106Z,9.13
2019-03-06T03:36:49.967Z,8.20
2019-03-06T03:39:19.662Z,7.60
2019-03-06T03:41:49.224Z,9.03
2019-03-06T03:44:18.809Z,8.93
2019-03-06T03:46:48.465Z,7.27
2019-03-06T03:49:18.245Z,7.60
2019-03-06T03:51:47.818Z,6.60
2019-03-06T03:54:17.483Z,7.67
2019-03-06T03:56:47.220Z,10.00
2019-03-06T03:59:16.799Z,7.87
2019-03-06T04:01:46.725Z,10.00
2019-03-06T04:04:16.151Z,7.13
2019-03-06T04:06:46.212Z,7.40
2019-03-06T04:09:18.025Z,7.60
2019-03-06T04:11:47.593Z,8.07
2019-03-06T04:14:17.460Z,7.60
2019-03-06T04:16:47.171Z,6.07
2019-03-06T04:19:16.817Z,5.67
2019-03-06T04:21:46.417Z,6.33
2019-03-06T04:24:16.035Z,7.50
2019-03-06T04:26:45.872Z,6.37
2019-03-06T04:29:15.565Z,43.60
2019-03-06T04:31:45.374Z,9.33
2019-03-06T04:34:15.001Z,6.80
2019-03-06T04:36:46.302Z,6.67
2019-03-06T04:39:15.815Z,6.33
2019-03-06T04:41:45.531Z,7.27
2019-03-06T04:44:15.307Z,6.67
2019-03-06T04:46:44.989Z,7.30
2019-03-06T04:49:14.672Z,6.17
2019-03-06T04:51:44.219Z,7.93
2019-03-06T04:54:13.875Z,13.17
2019-03-06T04:56:43.582Z,13.30
2019-03-06T04:59:13.159Z,9.40
2019-03-06T05:01:43.020Z,8.50
2019-03-06T05:04:12.711Z,8.20
2019-03-06T05:06:42.315Z,8.13
2019-03-06T05:09:12.085Z,8.10
2019-03-06T05:11:41.658Z,9.50
2019-03-06T05:14:11.522Z,10.57
2019-03-06T05:17:02.583Z,10.93
2019-03-06T05:19:32.214Z,10.13
2019-03-06T05:22:04.305Z,10.30
2019-03-06T05:24:34.033Z,9.60
2019-03-06T05:27:03.745Z,9.97
2019-03-06T05:29:33.317Z,9.83
2019-03-06T05:32:30.686Z,11.97
2019-03-06T05:35:12.181Z,11.67
2019-03-06T05:38:06.259Z,10.33
2019-03-06T05:40:36.002Z,10.53
2019-03-06T05:43:05.875Z,10.60
2019-03-06T05:45:35.746Z,10.30
2019-03-06T05:48:05.645Z,10.10
2019-03-06T05:50:35.384Z,11.17
2019-03-06T05:53:05.032Z,11.90
2019-03-06T05:55:34.715Z,10.30
2019-03-06T05:58:04.714Z,11.33
2019-03-06T06:00:34.485Z,11.77
2019-03-06T06:03:04.156Z,11.67
2019-03-06T06:05:33.743Z,12.80
2019-03-06T06:08:03.505Z,12.43
2019-03-06T06:10:33.395Z,14.17
2019-03-06T06:13:02.992Z,13.87
2019-03-06T06:15:32.790Z,14.77
2019-03-06T06:18:02.392Z,14.00
2019-03-06T06:20:32.253Z,13.90
2019-03-06T06:23:17.317Z,15.20
2019-03-06T06:25:46.910Z,16.40
2019-03-06T06:28:16.638Z,12.27
2019-03-06T06:30:46.355Z,9.67
2019-03-06T06:33:16.007Z,9.73
2019-03-06T06:35:45.632Z,10.53
2019-03-06T06:38:15.058Z,9.37
2019-03-06T06:40:44.797Z,8.50
2019-03-06T06:43:14.361Z,8.27
2019-03-06T06:45:44.127Z,8.30
2019-03-06T06:48:18.429Z,9.27
2019-03-06T06:51:01.531Z,9.57
2019-03-06T06:53:45.165Z,9.63
2019-03-06T06:56:41.970Z,9.10
2019-03-06T06:59:25.755Z,8.27
2019-03-06T07:02:51.799Z,8.00
2019-03-06T07:05:45.768Z,8.93
2019-03-06T07:08:24.906Z,9.77
2019-03-06T07:11:25.537Z,9.07
2019-03-06T07:14:07.509Z,9.30
2019-03-06T07:17:11.564Z,9.67
2019-03-06T07:19:47.289Z,8.97
2019-03-06T07:22:36.052Z,8.80
2019-03-06T07:25:23.411Z,6.30
2019-03-06T07:28:00.419Z,6.30
2019-03-06T07:30:48.015Z,6.03
2019-03-06T07:33:49.095Z,5.87
2019-03-06T07:36:36.607Z,5.87
2019-03-06T07:39:18.211Z,5.87
2019-03-06T07:41:58.966Z,5.73
2019-03-06T07:44:53.653Z,7.40
2019-03-06T07:47:41.122Z,8.67
2019-03-06T07:50:45.942Z,10.27
2019-03-06T07:53:53.721Z,11.07
2019-03-06T07:56:44.739Z,9.20
2019-03-06T07:59:14.380Z,8.77
2019-03-06T08:01:50.904Z,9.10
2019-03-06T08:04:20.541Z,8.20
2019-03-06T08:07:00.658Z,8.17
2019-03-06T08:09:30.286Z,7.57
2019-03-06T08:12:17.718Z,6.40
2019-03-06T08:15:21.565Z,5.40
2019-03-06T08:18:06.304Z,5.30
2019-03-06T08:20:47.413Z,5.30
2019-03-06T08:23:26.454Z,5.20
2019-03-06T08:25:56.202Z,5.37
2019-03-06T08:28:25.870Z,5.27
2019-03-06T08:31:00.084Z,4.70
2019-03-06T08:33:29.826Z,5.23
2019-03-06T08:35:59.517Z,5.90
2019-03-06T08:38:29.275Z,5.37
2019-03-06T08:41:04.287Z,5.87
2019-03-06T08:43:30.269Z,5.93
2019-03-06T08:46:07.791Z,6.60
2019-03-06T08:48:46.893Z,8.00
2019-03-06T08:51:29.148Z,7.30
2019-03-06T08:54:19.948Z,7.00
2019-03-06T08:57:13.384Z,7.07
2019-03-06T09:03:10.358Z,6.90
2019-03-06T09:05:54.519Z,6.23
2019-03-06T09:08:39.830Z,7.20
2019-03-06T09:11:20.406Z,6.27
2019-03-06T09:14:07.011Z,6.40
2019-03-06T09:16:58.447Z,6.87
2019-03-06T09:19:36.100Z,6.67
2019-03-06T09:22:42.121Z,7.77
2019-03-06T09:25:29.177Z,7.13
2019-03-06T09:28:13.187Z,7.97
2019-03-06T09:30:49.002Z,6.37
2019-03-06T09:33:53.017Z,6.70
2019-03-06T09:36:41.655Z,6.50
2019-03-06T09:39:33.557Z,6.87
2019-03-06T09:42:34.505Z,6.97
2019-03-06T09:45:24.489Z,7.73
2019-03-06T09:48:31.392Z,7.17
2019-03-06T09:51:15.107Z,6.73
2019-03-06T09:54:09.738Z,7.70
2019-03-06T09:56:58.912Z,7.17
2019-03-06T09:59:36.377Z,7.10
2019-03-06T10:02:25.113Z,7.80
2019-03-06T10:05:09.712Z,6.67
2019-03-06T10:07:50.244Z,7.33
2019-03-06T10:10:46.191Z,7.77
2019-03-06T10:13:16.666Z,7.57
2019-03-06T10:16:08.740Z,7.17
2019-03-06T10:18:54.190Z,6.13
2019-03-06T10:21:25.763Z,5.77
2019-03-06T10:23:55.620Z,5.50
2019-03-06T10:26:25.411Z,6.10
2019-03-06T10:28:54.937Z,5.50
2019-03-06T10:31:24.585Z,6.17
2019-03-06T10:33:54.387Z,5.93
2019-03-06T10:36:24.085Z,5.70
2019-03-06T10:38:56.446Z,4.90
2019-03-06T10:41:26.124Z,6.57
2019-03-06T10:43:55.845Z,5.13
2019-03-06T10:46:25.535Z,5.77
2019-03-06T10:48:55.339Z,5.90
2019-03-06T10:51:25.099Z,4.77
2019-03-06T10:53:54.868Z,5.43
2019-03-06T10:56:24.652Z,4.10
2019-03-06T10:58:54.496Z,3.10
2019-03-06T11:01:24.498Z,4.00
2019-03-06T11:04:25.449Z,5.60
2019-03-06T11:06:55.563Z,3.93
2019-03-06T11:09:26.456Z,2.87
2019-03-06T11:11:56.463Z,3.23
2019-03-06T11:14:28.606Z,2.33
2019-03-06T11:16:58.436Z,2.20
2019-03-06T11:19:28.527Z,2.40
2019-03-06T11:21:58.237Z,2.40
2019-03-06T11:24:28.076Z,2.57
2019-03-06T11:26:58.310Z,2.53
2019-03-06T11:29:27.992Z,2.27
2019-03-06T11:31:57.714Z,2.30
2019-03-06T11:34:27.480Z,1.73
2019-03-06T11:36:58.093Z,2.13
2019-03-06T11:39:28.064Z,2.00
2019-03-06T11:41:57.965Z,2.00
2019-03-06T11:44:27.656Z,2.10
2019-03-06T11:46:57.222Z,1.87
2019-03-06T11:49:26.843Z,2.20
2019-03-06T11:51:56.599Z,2.40
2019-03-06T11:54:26.126Z,1.67
2019-03-06T11:56:55.700Z,4.57
2019-03-06T11:59:25.326Z,2.63
2019-03-06T12:01:54.941Z,1.47
2019-03-06T12:04:27.422Z,1.60
2019-03-06T12:06:57.374Z,1.80
2019-03-06T12:09:29.467Z,1.70
2019-03-06T12:11:59.295Z,1.80
2019-03-06T12:14:28.970Z,1.70
2019-03-06T12:16:58.748Z,1.97
2019-03-06T12:19:28.518Z,1.60
2019-03-06T12:21:58.712Z,1.30
2019-03-06T12:24:28.419Z,2.53
2019-03-06T12:26:58.056Z,2.63
2019-03-06T12:29:27.893Z,1.83
2019-03-06T12:31:57.770Z,2.10
2019-03-06T12:34:27.803Z,2.10
2019-03-06T12:36:57.675Z,2.03
2019-03-06T12:39:27.268Z,2.20
2019-03-06T12:41:58.828Z,2.23
2019-03-06T12:44:28.433Z,2.43
2019-03-06T12:47:00.741Z,2.17
2019-03-06T12:49:31.006Z,2.20
2019-03-06T12:52:00.756Z,3.63
2019-03-06T12:54:31.398Z,2.17
2019-03-06T12:57:01.082Z,2.00
2019-03-06T12:59:31.347Z,2.40
2019-03-06T13:02:01.085Z,2.20
2019-03-06T13:04:30.765Z,2.17
2019-03-06T13:07:00.505Z,4.07
2019-03-06T13:09:30.171Z,2.23
2019-03-06T13:12:01.626Z,2.00
2019-03-06T13:14:31.358Z,2.57
2019-03-06T13:17:00.948Z,2.17
2019-03-06T13:19:30.625Z,2.53
2019-03-06T13:22:00.173Z,2.07
2019-03-06T13:24:32.130Z,2.00
2019-03-06T13:27:02.044Z,3.40
2019-03-06T13:29:31.628Z,1.97
2019-03-06T13:32:01.316Z,2.33
2019-03-06T13:34:50.283Z,1.97
2019-03-06T13:37:14.965Z,1.97
2019-03-06T13:39:44.808Z,2.10
2019-03-06T13:42:14.474Z,2.60
2019-03-06T13:44:44.225Z,2.83
2019-03-06T13:47:14.038Z,1.90
2019-03-06T13:49:43.926Z,1.83
2019-03-06T13:52:13.884Z,2.23
2019-03-06T13:54:45.607Z,3.00
2019-03-06T13:57:15.775Z,1.83
2019-03-06T13:59:45.395Z,1.80
2019-03-06T14:02:15.103Z,2.23
2019-03-06T14:04:44.736Z,1.70
2019-03-06T14:07:14.668Z,2.00
2019-03-06T14:09:44.276Z,2.10
2019-03-06T14:12:13.922Z,2.80
2019-03-06T14:14:43.536Z,1.80
2019-03-06T14:17:13.329Z,1.83
2019-03-06T14:19:42.993Z,3.40
2019-03-06T14:22:12.731Z,2.03
2019-03-06T14:24:42.405Z,2.27
2019-03-06T14:27:12.065Z,2.20
2019-03-06T14:29:41.777Z,2.03
2019-03-06T14:32:14.870Z,1.73
2019-03-06T14:34:43.147Z,1.80
2019-03-06T14:37:12.841Z,1.70
2019-03-06T14:39:42.542Z,1.87
2019-03-06T14:42:12.651Z,1.50
2019-03-06T14:44:42.160Z,1.40
2019-03-06T14:47:13.287Z,1.80
2019-03-06T14:49:42.858Z,2.10
2019-03-06T14:52:12.694Z,2.00
2019-03-06T14:54:42.294Z,1.83
2019-03-06T14:57:12.214Z,1.70
2019-03-06T14:59:42.071Z,1.80
2019-03-06T15:02:12.096Z,14.83
2019-03-06T15:04:41.769Z,2.53
2019-03-06T15:07:11.505Z,1.47
2019-03-06T15:09:41.184Z,1.67
2019-03-06T15:12:10.836Z,1.60
2019-03-06T15:14:40.577Z,1.93
2019-03-06T15:17:10.263Z,2.10
2019-03-06T15:19:41.864Z,1.80
2019-03-06T15:22:11.433Z,2.17
2019-03-06T15:24:41.893Z,1.63
2019-03-06T15:27:11.634Z,2.10
2019-03-06T15:29:44.357Z,1.70
2019-03-06T15:32:14.088Z,2.30
2019-03-06T15:34:43.847Z,2.10
2019-03-06T15:37:13.614Z,1.90
2019-03-06T15:39:48.730Z,2.00
2019-03-06T15:42:15.663Z,2.10
2019-03-06T15:44:45.388Z,2.40
2019-03-06T15:47:15.190Z,2.60
2019-03-06T15:49:44.950Z,2.73
2019-03-06T15:52:14.628Z,2.80
2019-03-06T15:54:44.370Z,2.87
2019-03-06T15:57:14.221Z,2.70
2019-03-06T15:59:43.819Z,4.03
2019-03-06T16:02:13.728Z,4.57
2019-03-06T16:04:43.429Z,3.40
2019-03-06T16:07:13.113Z,3.07
2019-03-06T16:09:43.029Z,3.70
2019-03-06T16:12:13.006Z,4.07
2019-03-06T16:14:42.635Z,4.47
2019-03-06T16:17:12.207Z,4.10
2019-03-06T16:19:41.854Z,3.73
2019-03-06T16:22:11.810Z,4.00
2019-03-06T16:24:41.502Z,5.07
2019-03-06T16:27:11.151Z,4.70
2019-03-06T16:29:40.792Z,5.13
2019-03-06T16:32:10.361Z,4.30
2019-03-06T16:34:40.079Z,3.97
2019-03-06T16:37:09.847Z,3.63
2019-03-06T16:39:41.618Z,4.27
2019-03-06T16:42:11.273Z,24.40
2019-03-06T16:44:40.938Z,5.57
2019-03-06T16:47:12.052Z,5.40
2019-03-06T16:49:41.970Z,8.47
2019-03-06T16:52:12.587Z,7.20
2019-03-06T16:54:42.204Z,6.23
2019-03-06T16:57:13.534Z,6.63
2019-03-06T16:59:43.309Z,9.47
2019-03-06T17:02:13.840Z,13.03
2019-03-06T17:04:43.581Z,15.40
2019-03-06T17:07:13.115Z,21.40
2019-03-06T17:09:42.729Z,14.30
2019-03-06T17:12:12.460Z,12.40
2019-03-06T17:14:42.258Z,15.97
2019-03-06T17:17:11.957Z,15.03
2019-03-06T17:19:41.604Z,16.90
2019-03-06T17:22:11.253Z,16.67
2019-03-06T17:24:41.078Z,16.57
2019-03-06T17:27:11.053Z,14.30
2019-03-06T17:29:41.191Z,13.67
2019-03-06T17:32:11.131Z,14.00
2019-03-06T17:34:42.635Z,12.63
2019-03-06T17:37:12.380Z,12.20
2019-03-06T17:39:42.056Z,11.27
2019-03-06T17:42:11.684Z,11.80
2019-03-06T17:44:41.781Z,11.77
2019-03-06T17:47:11.527Z,11.93
2019-03-06T17:49:42.314Z,11.30
2019-03-06T17:52:11.993Z,12.67
2019-03-06T17:54:42.526Z,10.27
2019-03-06T17:57:12.375Z,11.07
2019-03-06T17:59:43.292Z,12.83
2019-03-06T18:02:13.316Z,11.13
2019-03-06T18:04:43.141Z,11.70
2019-03-06T18:07:12.934Z,11.13
2019-03-06T18:09:42.724Z,11.63
2019-03-06T18:12:12.539Z,12.93
2019-03-06T18:14:42.438Z,12.07
2019-03-06T18:17:13.576Z,10.90
2019-03-06T18:19:43.310Z,11.57
2019-03-06T18:22:12.988Z,10.73
2019-03-06T18:24:43.195Z,9.67
2019-03-06T18:27:12.844Z,9.77
2019-03-06T18:29:42.573Z,7.40
2019-03-06T18:32:12.474Z,9.40
2019-03-06T18:34:42.073Z,8.10
2019-03-06T18:37:11.753Z,9.17
2019-03-06T18:39:41.705Z,9.63
2019-03-06T18:42:11.335Z,10.00
2019-03-06T18:44:41.051Z,12.60
2019-03-06T18:47:10.762Z,14.10
2019-03-06T18:49:40.674Z,13.43
2019-03-06T18:52:11.662Z,10.20
2019-03-06T18:54:41.420Z,7.27
2019-03-06T18:57:13.276Z,5.80
2019-03-06T18:59:42.516Z,5.20
2019-03-06T19:02:12.346Z,6.20
2019-03-06T19:04:41.840Z,5.37
2019-03-06T19:07:11.807Z,5.17
2019-03-06T19:09:41.318Z,5.63
2019-03-06T19:12:10.902Z,6.90
2019-03-06T19:14:42.448Z,6.10
2019-03-06T19:17:12.149Z,6.27
2019-03-06T19:19:41.865Z,6.50
2019-03-06T19:22:11.775Z,6.23
2019-03-06T19:24:41.303Z,8.87
2019-03-06T19:27:11.207Z,11.30
2019-03-06T19:29:40.880Z,11.63
2019-03-06T19:32:10.430Z,8.27
2019-03-06T19:34:40.448Z,9.53
2019-03-06T19:37:10.265Z,8.90
2019-03-06T19:39:40.059Z,8.90
2019-03-06T19:42:09.888Z,10.80
2019-03-06T19:44:39.410Z,9.60
2019-03-06T19:47:09.430Z,10.43
2019-03-06T19:49:39.257Z,11.47
2019-03-06T19:52:08.829Z,11.47
2019-03-06T19:54:38.458Z,15.27
2019-03-06T19:57:08.244Z,7.17
2019-03-06T19:59:37.959Z,8.70
2019-03-06T20:02:08.053Z,9.63
2019-03-06T20:04:38.027Z,9.57
2019-03-06T20:07:09.792Z,5.70
2019-03-06T20:09:39.475Z,5.27
2019-03-06T20:12:09.186Z,5.77
2019-03-06T20:14:39.035Z,4.87
2019-03-06T20:17:08.756Z,5.30
2019-03-06T20:19:38.380Z,5.17
2019-03-06T20:22:07.976Z,5.43
2019-03-06T20:24:37.523Z,5.97
2019-03-06T20:27:07.229Z,6.13
2019-03-06T20:29:37.002Z,6.03
2019-03-06T20:32:06.565Z,7.50
2019-03-06T20:34:36.239Z,6.07
2019-03-06T20:37:05.939Z,7.10
2019-03-06T20:39:35.656Z,7.60
2019-03-06T20:42:05.285Z,7.60
2019-03-06T20:44:34.944Z,6.50
2019-03-06T20:47:04.524Z,6.90
2019-03-06T20:49:34.283Z,5.63
2019-03-06T20:52:04.009Z,5.40
2019-03-06T20:54:33.626Z,5.60
2019-03-06T20:57:03.319Z,5.73
2019-03-06T20:59:32.869Z,5.40
2019-03-06T21:02:04.263Z,6.17
2019-03-06T21:04:34.132Z,4.30
2019-03-06T21:07:03.880Z,5.37
2019-03-06T21:09:33.593Z,5.03
2019-03-06T21:12:03.362Z,4.83
2019-03-06T21:14:32.986Z,5.00
2019-03-06T21:17:02.515Z,4.00
2019-03-06T21:19:32.141Z,4.87
2019-03-06T21:22:01.755Z,4.53
2019-03-06T21:24:31.483Z,5.07
2019-03-06T21:27:02.678Z,4.77
2019-03-06T21:29:32.311Z,6.60
2019-03-06T21:32:01.908Z,6.20
2019-03-06T21:34:31.621Z,6.97
2019-03-06T21:37:01.259Z,7.83
2019-03-06T21:39:30.878Z,9.40
2019-03-06T21:42:00.543Z,10.17
2019-03-06T21:44:30.226Z,11.00
2019-03-06T21:46:59.930Z,10.90
2019-03-06T21:49:30.366Z,14.77
2019-03-06T21:52:02.650Z,15.37
2019-03-06T21:54:32.303Z,13.63
2019-03-06T21:57:02.023Z,13.83
2019-03-06T21:59:31.869Z,14.53
2019-03-06T22:02:01.554Z,16.17
2019-03-06T22:04:33.245Z,15.43
2019-03-06T22:07:02.536Z,16.23
2019-03-06T22:09:32.209Z,15.87
2019-03-06T22:12:02.004Z,15.07
2019-03-06T22:14:31.547Z,15.00
2019-03-06T22:17:01.200Z,16.20
2019-03-06T22:19:31.656Z,15.80
2019-03-06T22:22:01.508Z,16.53
2019-03-06T22:24:31.146Z,15.53
2019-03-06T22:27:00.693Z,14.57
2019-03-06T22:29:30.343Z,14.90
2019-03-06T22:31:59.947Z,15.27
2019-03-06T22:34:29.790Z,12.23
2019-03-06T22:36:59.304Z,7.53
2019-03-06T22:39:30.103Z,8.53
2019-03-06T22:41:59.779Z,8.17
2019-03-06T22:44:29.512Z,9.83
2019-03-06T22:47:01.438Z,7.77
2019-03-06T22:49:31.007Z,7.13
2019-03-06T22:52:00.638Z,6.33
2019-03-06T22:54:30.421Z,5.37
2019-03-06T22:57:00.151Z,4.90
2019-03-06T22:59:29.865Z,4.73
2019-03-06T23:02:01.916Z,4.57
2019-03-06T23:04:31.479Z,4.80
2019-03-06T23:07:01.130Z,4.97
2019-03-06T23:09:30.876Z,4.23
2019-03-06T23:12:00.493Z,4.73
2019-03-06T23:14:31.561Z,4.33
2019-03-06T23:17:01.123Z,5.40
2019-03-06T23:19:30.814Z,5.60
2019-03-06T23:22:00.467Z,6.00
2019-03-06T23:24:30.179Z,5.00
2019-03-06T23:27:01.767Z,4.90
2019-03-06T23:29:33.526Z,5.27
2019-03-06T23:32:03.187Z,6.03
2019-03-06T23:34:32.797Z,6.30
2019-03-06T23:37:02.572Z,6.83
2019-03-06T23:39:32.163Z,6.57
2019-03-06T23:42:02.995Z,6.00
2019-03-06T23:44:32.735Z,6.67
2019-03-06T23:47:02.394Z,4.90
2019-03-06T23:49:32.094Z,4.87
2019-03-06T23:52:06.839Z,4.67
2019-03-06T23:54:36.357Z,4.83
2019-03-06T23:57:06.119Z,4.87
2019-03-06T23:59:36.503Z,4.97
